Time;durP1;ratioP1;P1;durP2;ratioP2;P2;SDS_P1;SDS_P2;PMS_P1;PMS_P2;Temp;Humidity;BMP_temperature;BMP_pressure;BME280_temperature;BME280_humidity;BME280_pressure;Samples;Min_cycle;Max_cycle;Signal;HPM_P1;HPM_P2
2022/12/17 13:06:38;;;;;;;1.00;0.80;;;;;;;0.37;90.16;98401.52;102007;1299;74343;-23
2022/12/17 13:09:21;;;;;;;0.70;0.50;;;;;;;0.54;90.43;98408.16;102304;1298;61168;-23
2022/12/17 13:36:11;;;;;;;0.50;0.50;;;;;;;0.09;92.13;98432.04;102318;1294;62675;-23
2022/12/17 13:39:00;;;;;;;0.60;0.50;;;;;;;0.34;91.21;98442.11;102287;1291;76449;-24
2022/12/17 14:55:29;;;;;;;8.80;4.50;;;;;;;-0.97;97.94;98507.44;99870;1328;62321;-22
2022/12/17 14:58:15;;;;;;;7.50;4.80;;;;;;;-1.09;95.37;98514.24;101466;1304;61924;-22
2022/12/17 15:01:10;;;;;;;6.30;4.10;;;;;;;-1.33;94.36;98524.08;101229;1312;73956;-22
2022/12/17 15:03:42;;;;;;;6.50;4.10;;;;;;;-1.49;94.35;98519.30;100299;1309;1273316;-22
2022/12/17 15:06:12;;;;;;;4.40;3.50;;;;;;;-1.21;93.46;98526.69;101094;1306;74162;-22
2022/12/17 15:08:40;;;;;;;5.30;3.60;;;;;;;-1.19;92.40;98532.58;101279;1314;61792;-22
2022/12/17 15:11:14;;;;;;;7.70;3.60;;;;;;;-1.44;92.74;98535.58;101410;1310;62127;-22
2022/12/17 15:13:41;;;;;;;5.40;3.90;;;;;;;-1.65;93.68;98535.10;101498;1311;72473;-22
2022/12/17 15:16:10;;;;;;;7.70;5.00;;;;;;;-1.57;93.88;98538.34;101525;1311;75899;-22
2022/12/17 15:18:37;;;;;;;5.90;4.10;;;;;;;-1.35;92.78;98546.48;101684;1308;74166;-22
2022/12/17 15:21:04;;;;;;;6.50;4.50;;;;;;;-1.39;91.88;98548.02;101653;1315;61113;-22
2022/12/17 15:23:34;;;;;;;5.70;4.40;;;;;;;-1.61;92.56;98554.00;101647;1309;61736;-23
2022/12/17 15:26:01;;;;;;;4.90;3.80;;;;;;;-1.67;93.10;98569.05;101375;1308;74373;-22
2022/12/17 15:28:28;;;;;;;7.30;4.00;;;;;;;-1.60;92.76;98568.77;101638;1309;75775;-22
2022/12/17 15:30:55;;;;;;;6.50;4.60;;;;;;;-1.36;91.47;98568.84;101682;1309;74188;-22
2022/12/17 15:33:22;;;;;;;8.60;5.80;;;;;;;-1.58;90.93;98570.21;101632;1308;61786;-23
2022/12/17 15:35:49;;;;;;;9.10;5.50;;;;;;;-1.84;92.09;98578.01;101589;1309;62182;-23
2022/12/17 15:38:16;;;;;;;9.30;6.10;;;;;;;-1.90;92.30;98572.95;101707;1307;74400;-22
2022/12/17 15:40:43;;;;;;;6.90;5.20;;;;;;;-1.83;92.47;98585.98;101658;1308;75748;-22
2022/12/17 15:43:10;;;;;;;8.50;5.40;;;;;;;-1.67;92.02;98595.26;101684;1308;74030;-23
2022/12/17 15:45:41;;;;;;;8.50;5.40;;;;;;;-1.61;91.47;98601.98;101182;1309;61082;-23
2022/12/17 15:48:13;;;;;;;7.70;5.00;;;;;;;-1.71;91.04;98605.78;101573;1309;61877;-23
2022/12/17 15:50:40;;;;;;;7.20;4.60;;;;;;;-1.88;91.43;98612.17;101418;1305;74623;-23
2022/12/17 15:53:08;;;;;;;10.20;6.00;;;;;;;-1.90;91.55;98612.27;101682;1301;73812;-22
2022/12/17 15:55:36;;;;;;;6.80;4.80;;;;;;;-1.77;91.16;98623.55;101690;1308;74086;-22
2022/12/17 15:58:03;;;;;;;10.50;6.50;;;;;;;-1.86;90.38;98624.56;101311;1309;61497;-23
2022/12/17 16:00:31;;;;;;;7.30;5.10;;;;;;;-1.86;90.61;98635.44;101502;1307;61809;-23
2022/12/17 16:02:58;;;;;;;7.80;4.60;;;;;;;-2.05;90.66;98644.64;101617;1308;74608;-22
2022/12/17 16:05:25;;;;;;;7.40;4.90;;;;;;;-2.09;91.20;98650.56;101661;1305;75666;-23
2022/12/17 16:07:52;;;;;;;8.10;5.40;;;;;;;-1.81;90.14;98656.34;101644;1308;74283;-22
2022/12/17 16:10:20;;;;;;;8.70;4.80;;;;;;;-1.89;89.68;98646.79;101631;1302;61814;-22
2022/12/17 16:12:47;;;;;;;9.00;6.00;;;;;;;-2.00;89.71;98654.51;101641;1307;61806;-22
2022/12/17 16:15:14;;;;;;;10.40;6.20;;;;;;;-2.12;90.36;98658.16;101549;1309;74585;-22
2022/12/17 16:17:42;;;;;;;11.40;7.90;;;;;;;-2.33;91.03;98660.58;101351;1318;75752;-22
2022/12/17 16:20:09;;;;;;;13.10;6.30;;;;;;;-2.14;90.57;98671.00;101643;1302;74320;-22
2022/12/17 16:22:38;;;;;;;9.70;6.70;;;;;;;-1.90;89.21;98675.61;102266;1299;61172;-22
2022/12/17 16:25:06;;;;;;;9.70;6.10;;;;;;;-2.05;88.96;98680.52;102393;1290;61808;-22
2022/12/17 16:27:33;;;;;;;12.00;7.70;;;;;;;-2.24;89.29;98675.25;102337;1299;74418;-22
2022/12/17 16:30:02;;;;;;;10.40;6.10;;;;;;;-2.60;90.21;98672.37;102629;1299;76320;-22
2022/12/17 16:32:29;;;;;;;12.40;7.60;;;;;;;-2.37;89.89;98677.04;102383;1291;73026;-23
2022/12/17 16:35:03;;;;;;;9.60;6.10;;;;;;;-2.29;88.70;98684.09;102566;1297;60982;-22
2022/12/17 16:37:31;;;;;;;11.70;7.40;;;;;;;-2.36;88.55;98690.95;102326;1302;61669;-22
2022/12/17 16:39:58;;;;;;;10.30;6.40;;;;;;;-2.37;88.41;98693.56;102555;1299;74493;-23
2022/12/17 16:42:26;;;;;;;11.20;7.50;;;;;;;-2.60;88.90;98696.71;102408;1295;74808;-22
2022/12/17 16:44:54;;;;;;;13.30;6.60;;;;;;;-2.81;89.75;98699.92;102514;1299;74105;-23
2022/12/17 16:47:21;;;;;;;15.00;8.20;;;;;;;-2.58;88.84;98701.05;102614;1295;61167;-23
2022/12/17 16:49:51;;;;;;;12.40;7.80;;;;;;;-2.61;88.04;98698.24;102663;1298;62090;-23
2022/12/17 16:52:18;;;;;;;9.80;7.50;;;;;;;-2.51;87.80;98705.91;102418;1297;74732;-22
2022/12/17 16:54:45;;;;;;;14.80;8.30;;;;;;;-2.84;88.43;98706.98;102594;1299;75712;-23
2022/12/17 16:57:13;;;;;;;14.00;8.60;;;;;;;-2.97;89.27;98709.61;102557;1296;74098;-23
2022/12/17 16:59:40;;;;;;;12.90;7.60;;;;;;;-2.72;88.61;98719.69;102569;1294;61009;-22
2022/12/17 17:02:11;;;;;;;14.90;8.30;;;;;;;-2.66;87.39;98716.77;102498;1289;61883;-22
2022/12/17 17:04:39;;;;;;;11.00;7.00;;;;;;;-2.79;87.55;98730.62;102327;1302;74771;-26
2022/12/17 17:07:06;;;;;;;13.00;7.90;;;;;;;-2.94;87.81;98730.73;102523;1299;75810;-23
2022/12/17 17:09:33;;;;;;;15.20;9.10;;;;;;;-3.22;88.50;98731.41;102527;1299;74089;-23
2022/12/17 17:12:00;;;;;;;14.70;9.20;;;;;;;-3.08;88.73;98736.09;102411;1299;62608;-24
2022/12/17 17:14:27;;;;;;;16.70;8.10;;;;;;;-3.04;88.19;98732.40;102395;1289;61884;-24
2022/12/17 17:16:54;;;;;;;11.30;7.10;;;;;;;-2.99;87.82;98733.11;102429;1299;74566;-23
2022/12/17 17:19:21;;;;;;;14.60;8.40;;;;;;;-3.13;88.30;98744.24;102273;1299;75960;-23
2022/12/17 17:22:09;;;;;;;17.20;10.70;;;;;;;-3.23;89.10;98747.91;102587;1298;74154;-23
2022/12/17 17:24:36;;;;;;;14.50;8.80;;;;;;;-3.10;88.33;98749.26;102357;1292;61354;-21
2022/12/17 17:27:03;;;;;;;19.00;9.10;;;;;;;-2.89;87.19;98748.41;102383;1297;61894;-21
2022/12/17 17:29:31;;;;;;;16.10;9.10;;;;;;;-3.11;87.41;98761.66;102516;1295;74565;-21
2022/12/17 17:31:58;;;;;;;17.90;11.20;;;;;;;-3.27;87.98;98747.84;102469;1299;76074;-21
2022/12/17 17:34:38;;;;;;;17.50;10.60;;;;;;;-3.53;88.29;98759.30;102376;1299;74395;-23
2022/12/17 17:37:07;;;;;;;14.60;9.40;;;;;;;-3.45;88.45;98764.52;102379;1291;61320;-21
2022/12/17 17:39:34;;;;;;;18.00;10.10;;;;;;;-3.38;87.57;98773.99;102418;1290;61688;-21
2022/12/17 17:42:01;;;;;;;10.80;7.30;;;;;;;-3.35;87.66;98777.13;102327;1299;74902;-21
2022/12/17 17:44:28;;;;;;;18.70;9.60;;;;;;;-3.32;88.12;98792.49;102349;1299;75732;-21
2022/12/17 17:46:55;;;;;;;14.70;9.20;;;;;;;-3.37;88.00;98799.77;102377;1296;74244;-21
2022/12/17 17:49:23;;;;;;;12.20;6.70;;;;;;;-3.17;88.08;98802.27;102531;1299;61053;-22
2022/12/17 17:51:50;;;;;;;17.20;9.90;;;;;;;-2.86;86.82;98807.77;102601;1299;61709;-21
2022/12/17 17:54:38;;;;;;;17.60;9.10;;;;;;;-3.13;87.30;98813.34;102619;1294;74559;-21
2022/12/17 17:57:06;;;;;;;12.30;7.90;;;;;;;-3.29;87.41;98821.78;102364;1299;75933;-21
2022/12/17 17:59:33;;;;;;;17.80;10.20;;;;;;;-3.42;88.09;98821.98;102251;1299;74134;-21
2022/12/17 18:02:01;;;;;;;17.80;10.30;;;;;;;-3.39;88.39;98834.95;102543;1292;61784;-34
2022/12/17 18:04:29;;;;;;;14.80;9.60;;;;;;;-3.24;87.52;98833.88;102446;1299;61261;-24
2022/12/17 18:06:59;;;;;;;16.60;9.30;;;;;;;-3.31;87.21;98837.11;102122;1294;75059;-22
2022/12/17 18:09:48;;;;;;;21.10;11.70;;;;;;;-3.41;87.78;98847.23;102338;1301;76028;-22
2022/12/17 18:15:01;;;;;;;18.20;9.20;;;;;;;-3.48;88.40;98852.84;102340;1292;60988;-22
2022/12/17 18:17:42;;;;;;;17.20;9.60;;;;;;;-3.30;87.22;98851.02;102270;1297;61880;-22
2022/12/17 18:20:11;;;;;;;16.50;9.70;;;;;;;-3.38;86.65;98852.41;102341;1297;73602;-22
2022/12/17 18:22:38;;;;;;;18.10;10.90;;;;;;;-3.53;87.20;98863.02;102402;1297;75826;-21
2022/12/17 18:25:06;;;;;;;16.80;8.80;;;;;;;-3.66;87.75;98864.05;102378;1299;74262;-21
2022/12/17 18:27:33;;;;;;;20.70;11.30;;;;;;;-3.70;88.14;98851.75;102494;1299;62725;-21
2022/12/17 18:30:00;;;;;;;18.20;10.30;;;;;;;-3.48;86.85;98841.48;102619;1292;61902;-23
2022/12/17 18:32:27;;;;;;;18.20;10.70;;;;;;;-3.52;86.38;98842.63;102604;1290;74666;-23
2022/12/17 18:34:55;;;;;;;19.40;11.10;;;;;;;-3.65;87.13;98854.17;102610;1299;75748;-22
2022/12/17 18:37:22;;;;;;;21.30;11.80;;;;;;;-3.79;87.28;98844.52;102344;1299;74211;-23
2022/12/17 18:39:49;;;;;;;21.70;12.80;;;;;;;-3.97;88.28;98854.30;102321;1299;61241;-22
2022/12/17 18:45:03;;;;;;;15.90;7.90;;;;;;;-3.59;86.96;98844.53;102373;1289;74630;-23
2022/12/17 18:47:30;;;;;;;21.60;12.30;;;;;;;-3.80;86.70;98859.98;102396;1299;74899;-23
2022/12/17 18:49:57;;;;;;;19.20;11.10;;;;;;;-3.92;86.98;98875.90;102509;1299;74282;-23
2022/12/17 18:52:26;;;;;;;16.80;10.30;;;;;;;-4.01;87.71;98887.83;102594;1299;61141;-23
2022/12/17 18:54:53;;;;;;;18.40;11.50;;;;;;;-3.87;86.97;98891.70;102369;1291;61192;-22
2022/12/17 18:57:20;;;;;;;21.90;12.50;;;;;;;-3.80;86.21;98903.41;102367;1294;74785;-24
2022/12/17 18:59:48;;;;;;;20.20;11.10;;;;;;;-3.83;86.45;98905.36;102465;1290;75772;-23
2022/12/17 19:02:15;;;;;;;18.70;11.10;;;;;;;-3.82;86.81;98895.83;102367;1295;72879;-22
2022/12/17 19:04:43;;;;;;;18.20;10.20;;;;;;;-3.99;87.53;98902.16;102402;1291;61046;-22
2022/12/17 19:07:10;;;;;;;18.00;10.40;;;;;;;-4.02;88.26;98905.98;102566;1294;61941;-22
2022/12/17 19:09:39;;;;;;;17.50;9.60;;;;;;;-3.71;86.83;98914.89;102672;1289;75379;-23
2022/12/17 19:12:07;;;;;;;23.70;12.30;;;;;;;-3.51;85.39;98924.39;102654;1298;75593;-23
2022/12/17 19:14:35;;;;;;;18.60;10.90;;;;;;;-3.78;85.81;98935.76;102419;1294;73049;-23
2022/12/17 19:17:02;;;;;;;16.00;9.10;;;;;;;-3.97;86.35;98943.02;102406;1293;61136;-22
2022/12/17 19:19:31;;;;;;;20.60;12.10;;;;;;;-4.06;87.28;98956.45;102417;1299;61616;-23
2022/12/17 19:21:59;;;;;;;15.40;9.10;;;;;;;-3.82;87.46;98968.10;102164;1300;75370;-23
2022/12/17 19:24:26;;;;;;;16.80;9.70;;;;;;;-3.51;86.00;98969.73;102562;1299;75638;-23
2022/12/17 19:26:53;;;;;;;22.40;12.80;;;;;;;-3.55;85.37;98964.05;102519;1294;74285;-22
2022/12/17 19:29:21;;;;;;;23.00;11.80;;;;;;;-3.83;86.07;98983.39;102608;1291;61040;-23
2022/12/17 19:31:48;;;;;;;24.20;12.40;;;;;;;-3.98;86.85;98979.33;102257;1302;61340;-23
2022/12/17 19:34:16;;;;;;;19.80;11.70;;;;;;;-3.96;87.34;98983.36;102459;1297;75366;-22
2022/12/17 19:36:44;;;;;;;18.20;9.60;;;;;;;-3.89;86.47;98970.80;102350;1292;75820;-22
2022/12/17 19:39:13;;;;;;;17.20;10.10;;;;;;;-3.91;86.06;98973.05;102582;1291;73119;-23
2022/12/17 19:41:40;;;;;;;19.80;11.50;;;;;;;-4.08;86.86;98977.17;102220;1292;61148;-23
2022/12/17 19:44:11;;;;;;;22.50;11.30;;;;;;;-4.18;87.33;98970.45;102508;1299;61697;-22
2022/12/17 19:46:38;;;;;;;24.40;12.10;;;;;;;-4.27;87.34;98979.97;102375;1292;73742;-23
2022/12/17 19:49:15;;;;;;;17.70;10.40;;;;;;;-4.06;86.73;98981.89;102682;1299;75816;-22
2022/12/17 19:51:44;;;;;;;15.60;9.50;;;;;;;-4.11;86.29;98985.05;102436;1291;74349;-23
2022/12/17 19:54:13;;;;;;;18.90;10.50;;;;;;;-4.03;86.40;99007.43;102657;1291;61037;-23
2022/12/17 19:56:41;;;;;;;15.90;10.00;;;;;;;-4.17;86.63;99007.89;102430;1299;61164;-24
2022/12/17 19:59:34;;;;;;;16.80;10.90;;;;;;;-4.34;87.08;99011.33;102395;1298;73237;-22
2022/12/17 20:02:02;;;;;;;23.10;11.20;;;;;;;-4.11;86.51;99015.91;102408;1292;75856;-24
2022/12/17 20:04:30;;;;;;;14.90;8.70;;;;;;;-4.03;85.84;99013.20;102635;1299;73957;-23
2022/12/17 20:06:59;;;;;;;17.20;9.20;;;;;;;-4.02;85.41;99023.34;102466;1289;61164;-23
2022/12/17 20:09:26;;;;;;;19.00;10.50;;;;;;;-4.08;85.92;99040.45;102368;1297;61850;-23
2022/12/17 20:11:53;;;;;;;21.30;10.80;;;;;;;-4.31;86.68;99049.55;102460;1295;75240;-23
2022/12/17 20:14:25;;;;;;;15.90;10.60;;;;;;;-4.21;86.89;99039.54;102600;1292;75848;-23
2022/12/17 20:16:55;;;;;;;15.90;10.00;;;;;;;-3.94;86.08;99049.46;102376;1302;73166;-23
2022/12/17 20:19:26;;;;;;;20.60;11.30;;;;;;;-4.02;85.83;99047.25;102431;1299;61056;-23
2022/12/17 20:21:53;;;;;;;20.30;11.60;;;;;;;-4.22;86.54;99045.66;102344;1300;61931;-23
2022/12/17 20:24:21;;;;;;;22.30;12.10;;;;;;;-4.38;87.27;99055.81;102470;1291;75235;-23
2022/12/17 20:26:57;;;;;;;21.70;13.70;;;;;;;-4.39;87.60;99044.46;102717;1297;75715;-21
2022/12/17 20:29:24;;;;;;;21.00;11.20;;;;;;;-4.12;86.32;99054.77;102494;1299;74436;-21
2022/12/17 20:31:51;;;;;;;21.30;11.60;;;;;;;-4.10;85.92;99077.63;102530;1291;61216;-24
2022/12/17 20:34:21;;;;;;;20.50;10.90;;;;;;;-4.16;86.14;99077.55;102403;1297;61031;-21
2022/12/17 20:36:50;;;;;;;22.00;11.10;;;;;;;-4.29;86.51;99090.72;102502;1291;74327;-21
2022/12/17 20:39:17;;;;;;;19.30;11.40;;;;;;;-4.40;87.42;99108.88;102421;1299;75700;-21
2022/12/17 20:41:50;;;;;;;18.90;9.70;;;;;;;-4.15;86.92;99108.75;102601;1291;74238;-21
2022/12/17 20:44:17;;;;;;;17.20;9.90;;;;;;;-4.00;86.10;99118.79;102634;1297;61103;-21
2022/12/17 20:46:44;;;;;;;23.20;12.60;;;;;;;-4.06;85.59;99125.02;102596;1291;61972;-21
2022/12/17 20:49:12;;;;;;;20.40;9.90;;;;;;;-4.38;86.71;99119.69;102668;1292;75393;-21
2022/12/17 20:51:39;;;;;;;23.60;11.60;;;;;;;-4.36;87.55;99129.15;102647;1299;75624;-21
2022/12/17 20:54:07;;;;;;;21.20;11.00;;;;;;;-4.49;87.98;99136.53;102246;1292;73995;-21
2022/12/17 20:56:34;;;;;;;18.30;10.70;;;;;;;-4.26;87.32;99135.08;102584;1297;61017;-21
2022/12/17 20:59:04;;;;;;;23.10;14.00;;;;;;;-4.17;86.83;99136.41;102661;1299;61956;-21
2022/12/17 21:01:32;;;;;;;21.00;11.70;;;;;;;-4.32;87.42;99142.81;102341;1298;75442;-22
2022/12/17 21:03:59;;;;;;;20.00;12.10;;;;;;;-4.46;88.08;99130.20;102161;1299;75387;-21
2022/12/17 21:06:34;;;;;;;17.90;11.80;;;;;;;-4.58;88.61;99134.48;102349;1295;74117;-21
2022/12/17 21:09:00;;;;;;;19.60;10.10;;;;;;;-4.25;88.11;99137.27;102284;1302;61190;-21
2022/12/17 21:11:29;;;;;;;19.60;10.00;;;;;;;-4.14;86.95;99142.46;102394;1297;62916;-21
2022/12/17 21:13:56;;;;;;;18.50;10.30;;;;;;;-4.37;87.27;99145.10;102234;1292;75304;-21
2022/12/17 21:16:28;;;;;;;16.90;10.00;;;;;;;-4.57;88.74;99157.00;102532;1299;74804;-21
2022/12/17 21:18:55;;;;;;;20.80;10.90;;;;;;;-4.43;88.53;99163.86;102214;1294;75196;-21
2022/12/17 21:21:31;;;;;;;15.90;9.10;;;;;;;-4.07;87.54;99168.29;102305;1292;61127;-21
2022/12/17 21:23:58;;;;;;;18.40;10.60;;;;;;;-3.90;85.95;99171.52;102362;1299;61192;-21
2022/12/17 21:26:28;;;;;;;18.80;11.20;;;;;;;-4.13;86.14;99161.43;102431;1299;75282;-21
2022/12/17 21:28:58;;;;;;;18.90;10.40;;;;;;;-4.20;86.71;99165.46;102370;1294;75915;-21
2022/12/17 21:31:28;;;;;;;18.00;10.30;;;;;;;-4.40;87.34;99161.77;102259;1302;74104;-22
2022/12/17 21:33:57;;;;;;;13.20;8.20;;;;;;;-4.47;87.63;99171.58;102363;1292;61822;-22
2022/12/17 21:36:26;;;;;;;14.90;7.90;;;;;;;-4.13;86.79;99177.05;102340;1294;61705;-22
2022/12/17 21:38:53;;;;;;;17.00;9.00;;;;;;;-3.98;86.12;99187.95;102470;1297;75360;-23
2022/12/17 21:41:22;;;;;;;18.20;10.10;;;;;;;-4.12;86.18;99178.73;102648;1297;74791;-22
2022/12/17 21:43:56;;;;;;;17.80;9.80;;;;;;;-4.35;86.96;99173.22;102383;1294;73193;-22
2022/12/17 21:46:27;;;;;;;15.30;8.00;;;;;;;-4.47;87.65;99176.33;102384;1299;61114;-22
2022/12/17 21:48:56;;;;;;;18.00;10.00;;;;;;;-4.22;87.63;99188.23;102349;1298;61963;-22
2022/12/17 21:51:25;;;;;;;18.00;9.70;;;;;;;-3.97;86.15;99182.33;102359;1299;74301;-22
2022/12/17 21:53:54;;;;;;;12.20;7.50;;;;;;;-4.07;85.86;99189.48;102339;1292;75773;-22
2022/12/17 21:56:21;;;;;;;17.80;10.30;;;;;;;-4.03;85.87;99190.59;102339;1292;74258;-21
2022/12/17 21:58:48;;;;;;;22.40;10.40;;;;;;;-4.23;86.33;99186.23;102402;1299;61076;-22
2022/12/17 22:01:22;;;;;;;17.20;10.20;;;;;;;-4.39;86.84;99202.43;102459;1294;62058;-22
2022/12/17 22:03:49;;;;;;;18.50;8.20;;;;;;;-4.21;86.45;99207.39;102333;1282;75595;-22
2022/12/17 22:06:22;;;;;;;14.00;7.40;;;;;;;-3.99;85.30;99206.96;102386;1290;75976;-21
2022/12/17 22:08:51;;;;;;;13.00;7.10;;;;;;;-4.06;84.64;99205.06;102289;1296;74612;-22
2022/12/17 22:11:25;;;;;;;14.50;8.30;;;;;;;-4.21;84.53;99202.95;102630;1291;61056;-22
2022/12/17 22:14:05;;;;;;;14.10;7.60;;;;;;;-4.45;85.60;99206.45;102299;1302;61739;-22
2022/12/17 22:16:41;;;;;;;9.60;5.90;;;;;;;-4.18;85.40;99219.00;102360;1291;74354;-22
2022/12/17 22:19:09;;;;;;;12.90;8.10;;;;;;;-3.74;83.93;99217.50;102381;1298;75461;-22
2022/12/17 22:21:39;;;;;;;17.30;9.50;;;;;;;-3.77;83.22;99213.14;102385;1292;74219;-22
2022/12/17 22:24:06;;;;;;;14.40;9.00;;;;;;;-3.89;82.91;99218.48;102249;1291;61182;-22
2022/12/17 22:26:33;;;;;;;12.60;6.70;;;;;;;-4.41;84.12;99209.60;102328;1292;61139;-22
2022/12/17 22:29:01;;;;;;;12.10;7.10;;;;;;;-4.50;84.55;99216.70;102612;1291;75298;-22
2022/12/17 22:34:15;;;;;;;11.00;7.30;;;;;;;-4.49;84.30;99222.98;102156;1298;72453;-22
2022/12/17 22:37:03;;;;;;;15.20;7.80;;;;;;;-4.34;83.58;99221.16;102493;1289;61157;-21
2022/12/17 22:39:50;;;;;;;13.70;7.60;;;;;;;-4.34;83.64;99236.26;102547;1289;61765;-22
2022/12/17 22:45:42;;;;;;;13.40;7.60;;;;;;;-4.76;84.69;99250.15;102603;1299;75614;-22
2022/12/17 22:48:10;;;;;;;13.50;7.60;;;;;;;-4.70;84.83;99250.91;102580;1291;73887;-22
2022/12/17 22:50:38;;;;;;;13.40;8.00;;;;;;;-4.41;84.01;99256.20;102388;1299;61123;-22
2022/12/17 22:53:28;;;;;;;12.80;7.10;;;;;;;-4.51;83.67;99257.73;102389;1299;61745;-22
2022/12/17 22:55:56;;;;;;;16.60;9.90;;;;;;;-4.83;84.85;99260.42;102568;1299;75338;-21
2022/12/17 22:58:23;;;;;;;13.10;8.10;;;;;;;-4.99;85.54;99261.00;102231;1299;75768;-22
2022/12/17 23:00:50;;;;;;;13.20;7.90;;;;;;;-4.83;85.96;99278.57;102285;1299;74224;-22
2022/12/17 23:03:17;;;;;;;15.60;8.90;;;;;;;-4.60;84.46;99281.27;102317;1297;61198;-23
2022/12/17 23:05:44;;;;;;;17.90;9.20;;;;;;;-4.60;84.15;99282.45;102585;1291;61859;-22
2022/12/17 23:08:13;;;;;;;15.00;7.70;;;;;;;-4.68;83.77;99283.08;102658;1294;75596;-21
2022/12/17 23:10:41;;;;;;;17.10;8.80;;;;;;;-4.86;84.28;99299.27;102646;1294;75778;-22
2022/12/17 23:13:08;;;;;;;16.50;8.60;;;;;;;-5.01;84.73;99288.81;102425;1298;74220;-22
2022/12/17 23:15:35;;;;;;;12.10;7.20;;;;;;;-5.06;84.85;99302.60;102486;1299;62471;-22
2022/12/17 23:18:05;;;;;;;14.30;7.90;;;;;;;-4.61;83.41;99312.45;102208;1294;61881;-22
2022/12/17 23:20:33;;;;;;;14.70;8.60;;;;;;;-4.63;82.56;99309.77;102279;1292;75415;-22
2022/12/17 23:23:00;;;;;;;13.60;8.20;;;;;;;-4.77;82.80;99309.97;102162;1294;75744;-21
2022/12/17 23:25:28;;;;;;;14.60;7.80;;;;;;;-4.88;83.09;99310.81;102278;1291;73960;-22
2022/12/17 23:27:55;;;;;;;12.40;8.00;;;;;;;-5.11;83.72;99316.03;102330;1299;61069;-22
2022/12/17 23:30:22;;;;;;;9.30;6.30;;;;;;;-5.07;84.43;99314.80;102339;1291;61091;-23
2022/12/17 23:32:49;;;;;;;11.80;7.00;;;;;;;-4.73;82.96;99325.16;102488;1299;75279;-22
2022/12/17 23:35:17;;;;;;;14.00;8.10;;;;;;;-4.75;82.56;99335.36;102437;1297;74699;-21
2022/12/17 23:37:44;;;;;;;11.00;6.20;;;;;;;-4.62;81.93;99343.14;102518;1291;74267;-22
2022/12/17 23:40:11;;;;;;;10.80;6.80;;;;;;;-4.78;82.26;99345.90;102342;1297;61257;-22
2022/12/17 23:42:38;;;;;;;15.20;8.40;;;;;;;-4.86;82.68;99341.11;102607;1299;61713;-22
2022/12/17 23:45:06;;;;;;;13.50;7.10;;;;;;;-4.94;82.98;99344.27;102715;1289;75409;-22
2022/12/17 23:47:33;;;;;;;15.60;8.30;;;;;;;-4.60;81.98;99348.02;102397;1302;75677;-21
2022/12/17 23:50:00;;;;;;;9.90;5.90;;;;;;;-4.71;81.90;99351.05;102377;1291;74225;-22
2022/12/17 23:52:27;;;;;;;12.00;6.90;;;;;;;-4.61;81.67;99361.08;102640;1299;61080;-22
2022/12/17 23:54:54;;;;;;;13.90;7.70;;;;;;;-5.03;82.97;99361.81;102693;1292;61846;-22
2022/12/17 23:57:21;;;;;;;12.70;7.20;;;;;;;-5.21;83.70;99361.17;102623;1291;74751;-21
2022/12/17 23:59:48;;;;;;;10.90;6.70;;;;;;;-5.14;84.35;99373.47;102628;1289;75870;-22
